sensor_id;sensor_type;location;lat;lon;timestamp;temperature;humidity
12817;DHT22;6473;51.552;6.716;2022-11-15T00:01:24;9.20;99.90
12817;DHT22;6473;51.552;6.716;2022-11-15T00:04:10;10.50;99.90
12817;DHT22;6473;51.552;6.716;2022-11-15T00:06:56;9.30;99.90
12817;DHT22;6473;51.552;6.716;2022-11-15T00:09:43;9.30;99.90
12817;DHT22;6473;51.552;6.716;2022-11-15T00:15:14;9.40;99.90
12817;DHT22;6473;51.552;6.716;2022-11-15T00:20:45;9.80;99.90
12817;DHT22;6473;51.552;6.716;2022-11-15T00:23:31;10.60;99.90
12817;DHT22;6473;51.552;6.716;2022-11-15T00:26:18;10.00;99.90
12817;DHT22;6473;51.552;6.716;2022-11-15T00:29:04;10.00;99.90
12817;DHT22;6473;51.552;6.716;2022-11-15T00:31:49;10.30;99.90
12817;DHT22;6473;51.552;6.716;2022-11-15T00:34:35;13.40;99.90
12817;DHT22;6473;51.552;6.716;2022-11-15T00:37:20;10.50;99.90
12817;DHT22;6473;51.552;6.716;2022-11-15T00:40:06;10.40;99.90
12817;DHT22;6473;51.552;6.716;2022-11-15T00:42:53;10.50;99.90
12817;DHT22;6473;51.552;6.716;2022-11-15T00:45:39;14.00;99.90
12817;DHT22;6473;51.552;6.716;2022-11-15T00:48:25;8.90;99.90
12817;DHT22;6473;51.552;6.716;2022-11-15T00:51:11;10.80;99.90
12817;DHT22;6473;51.552;6.716;2022-11-15T00:53:59;10.80;99.90
12817;DHT22;6473;51.552;6.716;2022-11-15T00:59:32;10.80;99.90
12817;DHT22;6473;51.552;6.716;2022-11-15T01:05:03;10.80;99.90
12817;DHT22;6473;51.552;6.716;2022-11-15T01:07:52;10.90;99.90
12817;DHT22;6473;51.552;6.716;2022-11-15T01:10:40;11.00;99.90
12817;DHT22;6473;51.552;6.716;2022-11-15T01:13:26;10.90;99.90
12817;DHT22;6473;51.552;6.716;2022-11-15T01:16:15;9.70;99.90
12817;DHT22;6473;51.552;6.716;2022-11-15T01:19:02;10.90;99.90
12817;DHT22;6473;51.552;6.716;2022-11-15T01:21:49;11.00;99.90
12817;DHT22;6473;51.552;6.716;2022-11-15T01:24:34;11.00;99.90
12817;DHT22;6473;51.552;6.716;2022-11-15T01:30:08;11.10;99.90
12817;DHT22;6473;51.552;6.716;2022-11-15T01:32:55;10.00;99.90
12817;DHT22;6473;51.552;6.716;2022-11-15T01:35:41;11.30;99.90
12817;DHT22;6473;51.552;6.716;2022-11-15T01:38:27;11.60;99.90
12817;DHT22;6473;51.552;6.716;2022-11-15T01:41:19;11.40;99.90
12817;DHT22;6473;51.552;6.716;2022-11-15T01:44:38;11.40;99.90
12817;DHT22;6473;51.552;6.716;2022-11-15T01:47:27;11.40;99.90
12817;DHT22;6473;51.552;6.716;2022-11-15T01:50:18;11.50;99.90
12817;DHT22;6473;51.552;6.716;2022-11-15T01:53:08;11.60;99.90
12817;DHT22;6473;51.552;6.716;2022-11-15T01:55:55;13.60;99.90
12817;DHT22;6473;51.552;6.716;2022-11-15T01:58:42;11.60;99.90
12817;DHT22;6473;51.552;6.716;2022-11-15T02:01:29;11.60;99.90
12817;DHT22;6473;51.552;6.716;2022-11-15T02:04:18;11.60;99.90
12817;DHT22;6473;51.552;6.716;2022-11-15T02:07:08;11.60;99.90
12817;DHT22;6473;51.552;6.716;2022-11-15T02:09:58;11.80;99.90
12817;DHT22;6473;51.552;6.716;2022-11-15T02:12:45;11.50;99.90
12817;DHT22;6473;51.552;6.716;2022-11-15T02:15:38;11.50;99.90
12817;DHT22;6473;51.552;6.716;2022-11-15T02:18:28;13.00;99.90
12817;DHT22;6473;51.552;6.716;2022-11-15T02:21:23;12.40;99.90
12817;DHT22;6473;51.552;6.716;2022-11-15T02:28:08;11.60;99.90
12817;DHT22;6473;51.552;6.716;2022-11-15T02:31:00;11.60;99.90
12817;DHT22;6473;51.552;6.716;2022-11-15T02:33:53;11.60;99.90
12817;DHT22;6473;51.552;6.716;2022-11-15T02:36:43;11.60;99.90
12817;DHT22;6473;51.552;6.716;2022-11-15T02:39:34;11.70;99.90
12817;DHT22;6473;51.552;6.716;2022-11-15T02:42:26;11.70;99.90
12817;DHT22;6473;51.552;6.716;2022-11-15T02:45:35;13.20;99.90
12817;DHT22;6473;51.552;6.716;2022-11-15T02:48:24;11.80;99.90
12817;DHT22;6473;51.552;6.716;2022-11-15T02:51:11;11.70;99.90
12817;DHT22;6473;51.552;6.716;2022-11-15T02:53:58;11.80;99.90
12817;DHT22;6473;51.552;6.716;2022-11-15T02:56:44;11.70;99.90
12817;DHT22;6473;51.552;6.716;2022-11-15T02:59:43;11.70;99.90
12817;DHT22;6473;51.552;6.716;2022-11-15T03:02:49;11.70;99.90
12817;DHT22;6473;51.552;6.716;2022-11-15T03:05:46;11.90;99.90
12817;DHT22;6473;51.552;6.716;2022-11-15T03:08:44;11.40;99.90
12817;DHT22;6473;51.552;6.716;2022-11-15T03:11:37;12.00;99.90
12817;DHT22;6473;51.552;6.716;2022-11-15T03:14:29;12.50;99.90
12817;DHT22;6473;51.552;6.716;2022-11-15T03:17:19;12.10;99.90
12817;DHT22;6473;51.552;6.716;2022-11-15T03:20:09;12.00;99.90
12817;DHT22;6473;51.552;6.716;2022-11-15T03:23:00;12.10;99.90
12817;DHT22;6473;51.552;6.716;2022-11-15T03:25:48;12.10;99.90
12817;DHT22;6473;51.552;6.716;2022-11-15T03:28:38;12.20;99.90
12817;DHT22;6473;51.552;6.716;2022-11-15T03:31:28;12.20;99.90
12817;DHT22;6473;51.552;6.716;2022-11-15T03:34:38;13.60;99.90
12817;DHT22;6473;51.552;6.716;2022-11-15T03:37:29;12.30;99.90
12817;DHT22;6473;51.552;6.716;2022-11-15T03:40:24;12.30;99.90
12817;DHT22;6473;51.552;6.716;2022-11-15T03:43:16;12.30;99.90
12817;DHT22;6473;51.552;6.716;2022-11-15T03:46:07;12.30;99.90
12817;DHT22;6473;51.552;6.716;2022-11-15T03:49:07;14.30;99.90
12817;DHT22;6473;51.552;6.716;2022-11-15T03:51:56;12.20;99.90
12817;DHT22;6473;51.552;6.716;2022-11-15T03:54:54;12.20;99.90
12817;DHT22;6473;51.552;6.716;2022-11-15T03:57:41;14.30;99.90
12817;DHT22;6473;51.552;6.716;2022-11-15T04:00:26;12.10;99.90
12817;DHT22;6473;51.552;6.716;2022-11-15T04:03:11;12.20;99.90
12817;DHT22;6473;51.552;6.716;2022-11-15T04:08:43;12.10;99.90
12817;DHT22;6473;51.552;6.716;2022-11-15T04:11:28;12.30;99.90
12817;DHT22;6473;51.552;6.716;2022-11-15T04:14:15;14.60;99.90
12817;DHT22;6473;51.552;6.716;2022-11-15T04:17:01;12.50;99.90
12817;DHT22;6473;51.552;6.716;2022-11-15T04:19:46;10.70;99.90
12817;DHT22;6473;51.552;6.716;2022-11-15T04:22:52;12.50;99.90
12817;DHT22;6473;51.552;6.716;2022-11-15T04:25:57;12.50;99.90
12817;DHT22;6473;51.552;6.716;2022-11-15T04:28:43;12.50;99.90
12817;DHT22;6473;51.552;6.716;2022-11-15T04:31:44;12.60;99.90
12817;DHT22;6473;51.552;6.716;2022-11-15T04:37:16;12.40;99.90
12817;DHT22;6473;51.552;6.716;2022-11-15T04:40:03;12.20;99.90
12817;DHT22;6473;51.552;6.716;2022-11-15T04:42:48;12.10;99.90
12817;DHT22;6473;51.552;6.716;2022-11-15T04:45:34;11.90;99.90
12817;DHT22;6473;51.552;6.716;2022-11-15T04:48:21;11.90;99.90
12817;DHT22;6473;51.552;6.716;2022-11-15T04:51:06;13.70;99.90
12817;DHT22;6473;51.552;6.716;2022-11-15T04:53:52;11.90;99.90
12817;DHT22;6473;51.552;6.716;2022-11-15T04:56:37;11.90;99.90
12817;DHT22;6473;51.552;6.716;2022-11-15T04:59:23;15.90;99.90
12817;DHT22;6473;51.552;6.716;2022-11-15T05:02:08;11.70;99.90
12817;DHT22;6473;51.552;6.716;2022-11-15T05:04:55;11.70;99.90
12817;DHT22;6473;51.552;6.716;2022-11-15T05:07:40;11.60;99.90
12817;DHT22;6473;51.552;6.716;2022-11-15T05:15:56;11.50;99.90
12817;DHT22;6473;51.552;6.716;2022-11-15T05:18:42;11.40;99.90
12817;DHT22;6473;51.552;6.716;2022-11-15T05:21:32;11.40;99.90
12817;DHT22;6473;51.552;6.716;2022-11-15T05:24:18;11.40;99.90
12817;DHT22;6473;51.552;6.716;2022-11-15T05:27:04;11.30;99.90
12817;DHT22;6473;51.552;6.716;2022-11-15T05:32:36;11.40;99.90
12817;DHT22;6473;51.552;6.716;2022-11-15T05:35:31;12.00;99.90
12817;DHT22;6473;51.552;6.716;2022-11-15T05:38:23;11.60;99.90
12817;DHT22;6473;51.552;6.716;2022-11-15T05:41:09;11.70;99.90
12817;DHT22;6473;51.552;6.716;2022-11-15T05:43:55;11.80;99.90
12817;DHT22;6473;51.552;6.716;2022-11-15T05:46:42;11.70;99.90
12817;DHT22;6473;51.552;6.716;2022-11-15T05:49:31;11.90;99.90
12817;DHT22;6473;51.552;6.716;2022-11-15T05:52:22;14.40;99.90
12817;DHT22;6473;51.552;6.716;2022-11-15T05:55:10;12.00;99.90
12817;DHT22;6473;51.552;6.716;2022-11-15T05:57:56;12.00;99.90
12817;DHT22;6473;51.552;6.716;2022-11-15T06:00:41;12.00;99.90
12817;DHT22;6473;51.552;6.716;2022-11-15T06:03:27;12.00;99.90
12817;DHT22;6473;51.552;6.716;2022-11-15T06:06:13;12.10;99.90
12817;DHT22;6473;51.552;6.716;2022-11-15T06:08:59;12.20;99.90
12817;DHT22;6473;51.552;6.716;2022-11-15T06:11:46;12.20;99.90
12817;DHT22;6473;51.552;6.716;2022-11-15T06:14:35;12.20;99.90
12817;DHT22;6473;51.552;6.716;2022-11-15T06:17:22;12.30;99.90
12817;DHT22;6473;51.552;6.716;2022-11-15T06:20:09;12.30;99.90
12817;DHT22;6473;51.552;6.716;2022-11-15T06:23:04;12.30;99.90
12817;DHT22;6473;51.552;6.716;2022-11-15T06:25:50;12.30;99.90
12817;DHT22;6473;51.552;6.716;2022-11-15T06:28:36;12.30;99.90
12817;DHT22;6473;51.552;6.716;2022-11-15T06:31:22;12.30;99.90
12817;DHT22;6473;51.552;6.716;2022-11-15T06:34:09;12.40;99.90
12817;DHT22;6473;51.552;6.716;2022-11-15T06:36:55;12.40;99.90
12817;DHT22;6473;51.552;6.716;2022-11-15T06:39:42;12.40;99.90
12817;DHT22;6473;51.552;6.716;2022-11-15T06:42:28;12.40;99.90
12817;DHT22;6473;51.552;6.716;2022-11-15T06:45:15;12.40;99.90
12817;DHT22;6473;51.552;6.716;2022-11-15T06:50:50;12.40;99.90
12817;DHT22;6473;51.552;6.716;2022-11-15T06:53:36;12.50;99.90
12817;DHT22;6473;51.552;6.716;2022-11-15T06:56:24;12.40;99.90
12817;DHT22;6473;51.552;6.716;2022-11-15T06:59:10;12.40;99.90
12817;DHT22;6473;51.552;6.716;2022-11-15T07:01:56;12.40;99.90
12817;DHT22;6473;51.552;6.716;2022-11-15T07:04:44;12.40;99.90
12817;DHT22;6473;51.552;6.716;2022-11-15T07:07:30;12.40;99.90
12817;DHT22;6473;51.552;6.716;2022-11-15T07:10:18;12.40;99.90
12817;DHT22;6473;51.552;6.716;2022-11-15T07:13:03;12.50;99.90
12817;DHT22;6473;51.552;6.716;2022-11-15T07:16:03;12.50;99.90
12817;DHT22;6473;51.552;6.716;2022-11-15T07:18:53;12.40;99.90
12817;DHT22;6473;51.552;6.716;2022-11-15T07:21:46;12.50;99.90
12817;DHT22;6473;51.552;6.716;2022-11-15T07:24:32;12.50;99.90
12817;DHT22;6473;51.552;6.716;2022-11-15T07:27:21;12.50;99.90
12817;DHT22;6473;51.552;6.716;2022-11-15T07:30:11;12.50;99.90
12817;DHT22;6473;51.552;6.716;2022-11-15T07:33:05;12.60;99.90
12817;DHT22;6473;51.552;6.716;2022-11-15T07:46:46;12.40;99.90
12817;DHT22;6473;51.552;6.716;2022-11-15T07:49:33;12.20;99.90
12817;DHT22;6473;51.552;6.716;2022-11-15T07:52:20;12.00;99.90
12817;DHT22;6473;51.552;6.716;2022-11-15T07:55:09;11.90;99.90
12817;DHT22;6473;51.552;6.716;2022-11-15T07:58:01;11.80;99.90
12817;DHT22;6473;51.552;6.716;2022-11-15T08:00:47;11.80;99.90
12817;DHT22;6473;51.552;6.716;2022-11-15T08:03:35;11.80;99.90
12817;DHT22;6473;51.552;6.716;2022-11-15T08:06:25;11.80;99.90
12817;DHT22;6473;51.552;6.716;2022-11-15T08:09:11;11.70;99.90
12817;DHT22;6473;51.552;6.716;2022-11-15T08:11:56;11.60;99.90
12817;DHT22;6473;51.552;6.716;2022-11-15T08:14:42;11.50;99.90
12817;DHT22;6473;51.552;6.716;2022-11-15T08:17:28;11.40;99.90
12817;DHT22;6473;51.552;6.716;2022-11-15T08:20:32;11.30;99.90
12817;DHT22;6473;51.552;6.716;2022-11-15T08:23:27;11.30;99.90
12817;DHT22;6473;51.552;6.716;2022-11-15T08:26:24;11.20;99.90
12817;DHT22;6473;51.552;6.716;2022-11-15T08:29:18;11.10;99.90
12817;DHT22;6473;51.552;6.716;2022-11-15T08:32:27;11.00;99.90
12817;DHT22;6473;51.552;6.716;2022-11-15T08:39:22;10.90;99.90
12817;DHT22;6473;51.552;6.716;2022-11-15T08:42:08;10.70;99.90
12817;DHT22;6473;51.552;6.716;2022-11-15T08:44:53;10.70;99.90
12817;DHT22;6473;51.552;6.716;2022-11-15T08:47:41;10.70;99.90
12817;DHT22;6473;51.552;6.716;2022-11-15T08:50:29;10.70;99.90
12817;DHT22;6473;51.552;6.716;2022-11-15T08:53:19;10.80;99.90
12817;DHT22;6473;51.552;6.716;2022-11-15T08:56:08;10.60;99.90
12817;DHT22;6473;51.552;6.716;2022-11-15T08:58:56;10.80;99.90
12817;DHT22;6473;51.552;6.716;2022-11-15T09:01:47;10.80;99.90
12817;DHT22;6473;51.552;6.716;2022-11-15T09:07:23;10.90;99.90
12817;DHT22;6473;51.552;6.716;2022-11-15T09:10:09;11.00;99.90
12817;DHT22;6473;51.552;6.716;2022-11-15T09:12:57;11.00;99.90
12817;DHT22;6473;51.552;6.716;2022-11-15T09:15:49;11.20;99.90
12817;DHT22;6473;51.552;6.716;2022-11-15T09:18:49;11.20;99.90
12817;DHT22;6473;51.552;6.716;2022-11-15T09:21:45;11.40;99.90
12817;DHT22;6473;51.552;6.716;2022-11-15T09:28:28;11.80;99.90
12817;DHT22;6473;51.552;6.716;2022-11-15T09:31:16;11.90;99.90
12817;DHT22;6473;51.552;6.716;2022-11-15T09:34:02;11.90;99.90
12817;DHT22;6473;51.552;6.716;2022-11-15T09:36:48;11.70;99.90
12817;DHT22;6473;51.552;6.716;2022-11-15T09:39:35;11.70;99.90
12817;DHT22;6473;51.552;6.716;2022-11-15T09:42:34;11.70;99.90
12817;DHT22;6473;51.552;6.716;2022-11-15T09:45:28;11.60;99.90
12817;DHT22;6473;51.552;6.716;2022-11-15T09:48:54;11.60;99.90
12817;DHT22;6473;51.552;6.716;2022-11-15T09:51:34;11.50;99.90
12817;DHT22;6473;51.552;6.716;2022-11-15T09:54:05;11.60;99.90
12817;DHT22;6473;51.552;6.716;2022-11-15T09:56:40;11.80;99.90
12817;DHT22;6473;51.552;6.716;2022-11-15T09:59:24;11.90;99.90
12817;DHT22;6473;51.552;6.716;2022-11-15T10:02:05;12.10;99.90
12817;DHT22;6473;51.552;6.716;2022-11-15T10:04:37;12.10;99.90
12817;DHT22;6473;51.552;6.716;2022-11-15T10:07:14;13.10;99.90
12817;DHT22;6473;51.552;6.716;2022-11-15T10:09:46;12.10;99.90
12817;DHT22;6473;51.552;6.716;2022-11-15T10:12:15;12.10;99.90
12817;DHT22;6473;51.552;6.716;2022-11-15T10:17:25;12.30;99.90
12817;DHT22;6473;51.552;6.716;2022-11-15T10:20:00;12.40;99.90
12817;DHT22;6473;51.552;6.716;2022-11-15T10:22:32;12.50;99.90
12817;DHT22;6473;51.552;6.716;2022-11-15T10:25:17;12.50;99.90
12817;DHT22;6473;51.552;6.716;2022-11-15T10:27:51;12.50;99.90
12817;DHT22;6473;51.552;6.716;2022-11-15T10:30:19;12.50;99.90
12817;DHT22;6473;51.552;6.716;2022-11-15T10:32:48;12.70;99.90
12817;DHT22;6473;51.552;6.716;2022-11-15T10:35:23;12.80;99.90
12817;DHT22;6473;51.552;6.716;2022-11-15T10:37:50;12.90;99.90
12817;DHT22;6473;51.552;6.716;2022-11-15T10:40:20;13.10;99.90
12817;DHT22;6473;51.552;6.716;2022-11-15T10:42:48;13.30;99.90
12817;DHT22;6473;51.552;6.716;2022-11-15T10:45:32;13.50;99.90
12817;DHT22;6473;51.552;6.716;2022-11-15T10:48:32;13.60;99.90
12817;DHT22;6473;51.552;6.716;2022-11-15T10:50:59;13.70;99.90
12817;DHT22;6473;51.552;6.716;2022-11-15T10:56:50;13.60;91.90
12817;DHT22;6473;51.552;6.716;2022-11-15T10:59:26;13.70;90.70
12817;DHT22;6473;51.552;6.716;2022-11-15T11:01:54;13.70;93.90
12817;DHT22;6473;51.552;6.716;2022-11-15T11:04:23;13.90;96.80
12817;DHT22;6473;51.552;6.716;2022-11-15T11:06:51;14.00;90.50
12817;DHT22;6473;51.552;6.716;2022-11-15T11:09:27;14.10;85.80
12817;DHT22;6473;51.552;6.716;2022-11-15T11:14:24;14.10;75.40
12817;DHT22;6473;51.552;6.716;2022-11-15T11:16:55;14.10;85.20
12817;DHT22;6473;51.552;6.716;2022-11-15T11:19:37;14.30;56.00
12817;DHT22;6473;51.552;6.716;2022-11-15T11:22:12;14.10;60.70
12817;DHT22;6473;51.552;6.716;2022-11-15T11:24:45;14.20;64.80
12817;DHT22;6473;51.552;6.716;2022-11-15T11:27:25;14.30;38.00
12817;DHT22;6473;51.552;6.716;2022-11-15T11:30:03;14.60;44.60
12817;DHT22;6473;51.552;6.716;2022-11-15T11:35:29;14.70;19.50
12817;DHT22;6473;51.552;6.716;2022-11-15T11:38:11;14.30;35.20
12817;DHT22;6473;51.552;6.716;2022-11-15T11:40:44;14.20;21.70
12817;DHT22;6473;51.552;6.716;2022-11-15T11:43:23;14.20;23.30
12817;DHT22;6473;51.552;6.716;2022-11-15T11:46:10;14.40;21.30
12817;DHT22;6473;51.552;6.716;2022-11-15T11:48:42;14.20;21.50
12817;DHT22;6473;51.552;6.716;2022-11-15T11:51:16;14.10;29.20
12817;DHT22;6473;51.552;6.716;2022-11-15T11:53:49;14.10;22.60
12817;DHT22;6473;51.552;6.716;2022-11-15T11:56:23;14.20;18.60
12817;DHT22;6473;51.552;6.716;2022-11-15T11:58:53;14.00;21.00
12817;DHT22;6473;51.552;6.716;2022-11-15T12:01:23;14.10;25.90
12817;DHT22;6473;51.552;6.716;2022-11-15T12:03:57;14.10;17.80
12817;DHT22;6473;51.552;6.716;2022-11-15T12:06:32;14.00;16.50
12817;DHT22;6473;51.552;6.716;2022-11-15T12:09:04;14.00;16.30
12817;DHT22;6473;51.552;6.716;2022-11-15T12:11:38;14.00;10.50
12817;DHT22;6473;51.552;6.716;2022-11-15T12:14:16;14.00;3.70
12817;DHT22;6473;51.552;6.716;2022-11-15T12:16:45;14.20;8.30
12817;DHT22;6473;51.552;6.716;2022-11-15T12:19:12;14.20;7.30
12817;DHT22;6473;51.552;6.716;2022-11-15T12:21:43;14.40;1.00
12817;DHT22;6473;51.552;6.716;2022-11-15T12:24:23;14.40;1.00
12817;DHT22;6473;51.552;6.716;2022-11-15T12:26:54;14.20;1.00
12817;DHT22;6473;51.552;6.716;2022-11-15T12:29:27;14.30;1.00
12817;DHT22;6473;51.552;6.716;2022-11-15T12:31:58;14.30;1.00
12817;DHT22;6473;51.552;6.716;2022-11-15T12:34:46;14.30;1.00
12817;DHT22;6473;51.552;6.716;2022-11-15T12:40:24;14.40;1.00
12817;DHT22;6473;51.552;6.716;2022-11-15T12:43:00;14.30;1.00
12817;DHT22;6473;51.552;6.716;2022-11-15T12:45:29;14.30;1.00
12817;DHT22;6473;51.552;6.716;2022-11-15T12:51:06;14.40;1.00
12817;DHT22;6473;51.552;6.716;2022-11-15T12:53:34;14.60;1.00
12817;DHT22;6473;51.552;6.716;2022-11-15T12:56:24;14.90;1.00
12817;DHT22;6473;51.552;6.716;2022-11-15T12:58:56;15.00;1.00
12817;DHT22;6473;51.552;6.716;2022-11-15T13:01:57;14.70;1.00
12817;DHT22;6473;51.552;6.716;2022-11-15T13:04:27;14.70;1.00
12817;DHT22;6473;51.552;6.716;2022-11-15T13:06:58;14.60;1.00
12817;DHT22;6473;51.552;6.716;2022-11-15T13:09:53;14.60;1.00
12817;DHT22;6473;51.552;6.716;2022-11-15T13:12:51;14.40;1.00
12817;DHT22;6473;51.552;6.716;2022-11-15T13:15:34;14.60;1.00
12817;DHT22;6473;51.552;6.716;2022-11-15T13:18:27;14.80;1.00
12817;DHT22;6473;51.552;6.716;2022-11-15T13:20:54;14.90;1.00
12817;DHT22;6473;51.552;6.716;2022-11-15T13:23:22;14.70;1.00
12817;DHT22;6473;51.552;6.716;2022-11-15T13:28:45;14.40;1.00
12817;DHT22;6473;51.552;6.716;2022-11-15T13:31:28;14.50;1.00
12817;DHT22;6473;51.552;6.716;2022-11-15T13:33:59;14.50;1.00
12817;DHT22;6473;51.552;6.716;2022-11-15T13:36:27;14.40;1.00
12817;DHT22;6473;51.552;6.716;2022-11-15T13:38:58;14.50;1.00
12817;DHT22;6473;51.552;6.716;2022-11-15T13:41:26;14.30;1.00
12817;DHT22;6473;51.552;6.716;2022-11-15T13:43:56;14.10;1.00
12817;DHT22;6473;51.552;6.716;2022-11-15T13:46:25;14.30;1.00
12817;DHT22;6473;51.552;6.716;2022-11-15T13:48:56;14.20;1.00
12817;DHT22;6473;51.552;6.716;2022-11-15T13:51:30;14.20;1.00
12817;DHT22;6473;51.552;6.716;2022-11-15T13:54:01;14.20;1.00
12817;DHT22;6473;51.552;6.716;2022-11-15T13:56:30;14.20;1.00
12817;DHT22;6473;51.552;6.716;2022-11-15T13:59:07;14.40;1.00
12817;DHT22;6473;51.552;6.716;2022-11-15T14:01:34;14.50;1.00
12817;DHT22;6473;51.552;6.716;2022-11-15T14:04:03;14.50;1.00
12817;DHT22;6473;51.552;6.716;2022-11-15T14:06:30;14.50;1.00
12817;DHT22;6473;51.552;6.716;2022-11-15T14:09:02;14.60;1.00
12817;DHT22;6473;51.552;6.716;2022-11-15T14:11:29;14.50;1.00
12817;DHT22;6473;51.552;6.716;2022-11-15T14:14:19;14.40;1.00
12817;DHT22;6473;51.552;6.716;2022-11-15T14:16:48;14.30;1.00
12817;DHT22;6473;51.552;6.716;2022-11-15T14:19:37;14.30;2.30
12817;DHT22;6473;51.552;6.716;2022-11-15T14:22:12;14.20;2.70
12817;DHT22;6473;51.552;6.716;2022-11-15T14:24:41;14.10;3.90
12817;DHT22;6473;51.552;6.716;2022-11-15T14:27:23;17.70;9.70
12817;DHT22;6473;51.552;6.716;2022-11-15T14:29:52;14.00;7.50
12817;DHT22;6473;51.552;6.716;2022-11-15T14:32:24;14.00;9.80
12817;DHT22;6473;51.552;6.716;2022-11-15T14:34:55;13.90;11.70
12817;DHT22;6473;51.552;6.716;2022-11-15T14:37:23;13.90;12.20
12817;DHT22;6473;51.552;6.716;2022-11-15T14:39:51;13.90;15.20
12817;DHT22;6473;51.552;6.716;2022-11-15T14:42:19;13.80;14.00
12817;DHT22;6473;51.552;6.716;2022-11-15T14:44:47;13.80;17.50
12817;DHT22;6473;51.552;6.716;2022-11-15T14:47:15;13.80;14.70
12817;DHT22;6473;51.552;6.716;2022-11-15T14:49:42;13.80;15.30
12817;DHT22;6473;51.552;6.716;2022-11-15T14:52:27;13.70;19.70
12817;DHT22;6473;51.552;6.716;2022-11-15T14:54:54;13.70;22.50
12817;DHT22;6473;51.552;6.716;2022-11-15T14:57:21;13.70;23.00
12817;DHT22;6473;51.552;6.716;2022-11-15T14:59:49;13.70;24.00
12817;DHT22;6473;51.552;6.716;2022-11-15T15:02:19;13.60;24.40
12817;DHT22;6473;51.552;6.716;2022-11-15T15:04:47;13.60;27.30
12817;DHT22;6473;51.552;6.716;2022-11-15T15:07:15;13.60;27.90
12817;DHT22;6473;51.552;6.716;2022-11-15T15:09:46;13.60;28.30
12817;DHT22;6473;51.552;6.716;2022-11-15T15:12:17;13.60;33.00
12817;DHT22;6473;51.552;6.716;2022-11-15T15:14:45;13.60;35.80
12817;DHT22;6473;51.552;6.716;2022-11-15T15:17:13;13.60;36.40
12817;DHT22;6473;51.552;6.716;2022-11-15T15:19:42;13.50;41.50
12817;DHT22;6473;51.552;6.716;2022-11-15T15:22:13;13.50;44.30
12817;DHT22;6473;51.552;6.716;2022-11-15T15:27:09;13.50;46.40
12817;DHT22;6473;51.552;6.716;2022-11-15T15:29:36;13.50;46.50
12817;DHT22;6473;51.552;6.716;2022-11-15T15:32:12;13.50;48.10
12817;DHT22;6473;51.552;6.716;2022-11-15T15:34:39;13.50;49.00
12817;DHT22;6473;51.552;6.716;2022-11-15T15:37:12;13.50;51.10
12817;DHT22;6473;51.552;6.716;2022-11-15T15:42:07;13.40;57.70
12817;DHT22;6473;51.552;6.716;2022-11-15T15:44:34;13.40;63.60
12817;DHT22;6473;51.552;6.716;2022-11-15T15:47:01;13.40;62.80
12817;DHT22;6473;51.552;6.716;2022-11-15T15:49:28;13.40;63.90
12817;DHT22;6473;51.552;6.716;2022-11-15T15:51:55;13.40;66.40
12817;DHT22;6473;51.552;6.716;2022-11-15T15:54:23;13.40;67.50
12817;DHT22;6473;51.552;6.716;2022-11-15T15:56:50;13.30;69.80
12817;DHT22;6473;51.552;6.716;2022-11-15T15:59:17;13.30;73.30
12817;DHT22;6473;51.552;6.716;2022-11-15T16:01:44;13.40;70.30
12817;DHT22;6473;51.552;6.716;2022-11-15T16:06:40;13.30;74.80
12817;DHT22;6473;51.552;6.716;2022-11-15T16:09:13;13.30;78.90
12817;DHT22;6473;51.552;6.716;2022-11-15T16:11:43;13.30;77.50
12817;DHT22;6473;51.552;6.716;2022-11-15T16:14:10;13.30;79.30
12817;DHT22;6473;51.552;6.716;2022-11-15T16:16:37;13.30;82.20
12817;DHT22;6473;51.552;6.716;2022-11-15T16:19:05;13.30;83.20
12817;DHT22;6473;51.552;6.716;2022-11-15T16:21:32;13.30;84.50
12817;DHT22;6473;51.552;6.716;2022-11-15T16:23:59;13.30;84.50
12817;DHT22;6473;51.552;6.716;2022-11-15T16:26:28;13.30;87.90
12817;DHT22;6473;51.552;6.716;2022-11-15T16:28:57;13.30;85.60
12817;DHT22;6473;51.552;6.716;2022-11-15T16:31:25;13.30;88.20
12817;DHT22;6473;51.552;6.716;2022-11-15T16:33:54;13.30;89.10
12817;DHT22;6473;51.552;6.716;2022-11-15T16:36:22;13.30;88.30
12817;DHT22;6473;51.552;6.716;2022-11-15T16:38:49;13.30;88.10
12817;DHT22;6473;51.552;6.716;2022-11-15T16:41:17;13.30;88.30
12817;DHT22;6473;51.552;6.716;2022-11-15T16:43:44;13.30;86.80
12817;DHT22;6473;51.552;6.716;2022-11-15T16:46:18;13.30;88.50
12817;DHT22;6473;51.552;6.716;2022-11-15T16:48:45;13.30;90.00
12817;DHT22;6473;51.552;6.716;2022-11-15T16:51:13;13.30;87.90
12817;DHT22;6473;51.552;6.716;2022-11-15T16:53:40;13.40;85.90
12817;DHT22;6473;51.552;6.716;2022-11-15T16:56:19;13.40;88.50
12817;DHT22;6473;51.552;6.716;2022-11-15T16:58:49;13.30;89.60
12817;DHT22;6473;51.552;6.716;2022-11-15T17:01:22;13.40;88.00
12817;DHT22;6473;51.552;6.716;2022-11-15T17:06:18;13.40;86.40
12817;DHT22;6473;51.552;6.716;2022-11-15T17:11:16;13.40;87.40
12817;DHT22;6473;51.552;6.716;2022-11-15T17:13:44;13.40;87.60
12817;DHT22;6473;51.552;6.716;2022-11-15T17:16:18;13.40;90.60
12817;DHT22;6473;51.552;6.716;2022-11-15T17:18:50;13.40;88.60
12817;DHT22;6473;51.552;6.716;2022-11-15T17:21:19;13.40;90.50
12817;DHT22;6473;51.552;6.716;2022-11-15T17:23:47;13.40;90.50
12817;DHT22;6473;51.552;6.716;2022-11-15T17:26:15;13.40;90.00
12817;DHT22;6473;51.552;6.716;2022-11-15T17:28:43;13.50;91.10
12817;DHT22;6473;51.552;6.716;2022-11-15T17:31:12;13.50;92.00
12817;DHT22;6473;51.552;6.716;2022-11-15T17:33:42;13.40;91.90
12817;DHT22;6473;51.552;6.716;2022-11-15T17:36:11;13.40;92.10
12817;DHT22;6473;51.552;6.716;2022-11-15T17:38:40;13.40;92.30
12817;DHT22;6473;51.552;6.716;2022-11-15T17:41:10;13.40;92.90
12817;DHT22;6473;51.552;6.716;2022-11-15T17:43:38;13.50;92.30
12817;DHT22;6473;51.552;6.716;2022-11-15T17:46:10;13.50;93.60
12817;DHT22;6473;51.552;6.716;2022-11-15T17:48:38;13.50;92.60
12817;DHT22;6473;51.552;6.716;2022-11-15T17:51:10;13.60;92.40
12817;DHT22;6473;51.552;6.716;2022-11-15T17:53:39;13.70;91.80
12817;DHT22;6473;51.552;6.716;2022-11-15T17:56:08;13.70;91.70
12817;DHT22;6473;51.552;6.716;2022-11-15T17:58:35;13.70;92.00
12817;DHT22;6473;51.552;6.716;2022-11-15T18:01:07;13.80;91.00
12817;DHT22;6473;51.552;6.716;2022-11-15T18:03:35;13.90;90.40
12817;DHT22;6473;51.552;6.716;2022-11-15T18:06:03;13.80;91.10
12817;DHT22;6473;51.552;6.716;2022-11-15T18:08:35;13.90;90.40
12817;DHT22;6473;51.552;6.716;2022-11-15T18:11:04;13.80;91.80
12817;DHT22;6473;51.552;6.716;2022-11-15T18:13:32;13.80;90.60
12817;DHT22;6473;51.552;6.716;2022-11-15T18:16:00;13.90;90.30
12817;DHT22;6473;51.552;6.716;2022-11-15T18:18:30;13.90;90.20
12817;DHT22;6473;51.552;6.716;2022-11-15T18:21:02;13.90;86.60
12817;DHT22;6473;51.552;6.716;2022-11-15T18:23:29;14.00;86.00
12817;DHT22;6473;51.552;6.716;2022-11-15T18:25:59;14.00;86.40
12817;DHT22;6473;51.552;6.716;2022-11-15T18:28:31;14.00;87.40
12817;DHT22;6473;51.552;6.716;2022-11-15T18:30:59;13.90;89.30
12817;DHT22;6473;51.552;6.716;2022-11-15T18:33:31;13.90;90.00
12817;DHT22;6473;51.552;6.716;2022-11-15T18:36:00;13.90;89.20
12817;DHT22;6473;51.552;6.716;2022-11-15T18:38:27;13.90;90.60
12817;DHT22;6473;51.552;6.716;2022-11-15T18:41:03;13.90;93.50